Time;durP1;ratioP1;P1;durP2;ratioP2;P2;SDS_P1;SDS_P2;PMS_P1;PMS_P2;Temp;Humidity;BMP_temperature;BMP_pressure;BME280_temperature;BME280_humidity;BME280_pressure;Samples;Min_cycle;Max_cycle;Signal;HPM_P1;HPM_P2
2022/07/23 00:00:18;;;;;;;2.42;1.85;;;16.30;99.90;;;;;;4840251;29;20087;-77
2022/07/23 00:02:43;;;;;;;1.23;1.13;;;16.30;99.90;;;;;;4850469;29;20468;-77
2022/07/23 00:05:09;;;;;;;3.55;1.55;;;16.20;99.90;;;;;;4840441;29;20038;-77
2022/07/23 00:07:35;;;;;;;2.38;1.20;;;16.20;99.90;;;;;;4839927;29;20510;-77
2022/07/23 00:10:01;;;;;;;4.13;1.60;;;16.20;99.90;;;;;;4838283;29;20066;-77
2022/07/23 00:12:26;;;;;;;1.25;1.13;;;16.20;99.90;;;;;;4835806;29;20038;-77
2022/07/23 00:14:52;;;;;;;1.35;1.25;;;16.20;99.90;;;;;;4841559;29;20409;-77
2022/07/23 00:17:17;;;;;;;4.72;1.25;;;16.30;99.90;;;;;;4845795;29;20128;-77
2022/07/23 00:19:43;;;;;;;3.15;1.10;;;16.30;99.90;;;;;;4835392;29;20037;-77
2022/07/23 00:22:09;;;;;;;2.28;0.93;;;16.30;99.90;;;;;;4839652;29;20102;-77
2022/07/23 00:24:34;;;;;;;2.75;1.20;;;16.30;99.90;;;;;;4841472;29;20053;-77
2022/07/23 00:27:00;;;;;;;1.27;1.10;;;16.30;99.90;;;;;;4838224;29;20045;-77
2022/07/23 00:29:25;;;;;;;1.27;1.17;;;16.30;99.90;;;;;;4840017;29;20029;-77
2022/07/23 00:31:51;;;;;;;1.48;1.38;;;16.20;99.90;;;;;;4839697;29;20034;-77
2022/07/23 00:34:16;;;;;;;4.82;1.70;;;16.20;99.90;;;;;;4835111;29;20078;-77
2022/07/23 00:36:42;;;;;;;1.73;1.58;;;16.20;99.90;;;;;;4841770;29;20418;-76
2022/07/23 00:39:08;;;;;;;2.15;1.77;;;16.10;99.90;;;;;;4834193;29;20553;-77
2022/07/23 00:41:33;;;;;;;1.20;1.15;;;16.10;99.90;;;;;;4856553;29;20444;-76
2022/07/23 00:44:18;;;;;;;2.60;1.38;;;16.10;99.90;;;;;;4837437;29;20022;-76
2022/07/23 00:46:49;;;;;;;3.67;1.55;;;16.10;99.90;;;;;;4855260;29;20450;-77
2022/07/23 00:49:15;;;;;;;2.10;1.20;;;16.10;99.90;;;;;;4846706;29;21268;-76
2022/07/23 00:51:42;;;;;;;1.40;1.30;;;16.10;99.90;;;;;;4841805;29;20053;-76
2022/07/23 00:54:07;;;;;;;6.32;1.98;;;16.10;99.90;;;;;;4861262;29;20025;-76
2022/07/23 00:56:34;;;;;;;4.45;1.70;;;16.10;99.90;;;;;;4830937;29;20580;-76
2022/07/23 00:59:01;;;;;;;1.98;1.70;;;16.00;99.90;;;;;;4860069;29;20025;-76
2022/07/23 01:01:26;;;;;;;1.83;1.73;;;16.00;99.90;;;;;;4851327;29;20037;-76
2022/07/23 01:03:52;;;;;;;4.80;1.50;;;16.00;99.90;;;;;;4860577;29;20599;-76
2022/07/23 01:06:17;;;;;;;2.95;1.50;;;16.00;99.90;;;;;;4833137;29;20128;-76
2022/07/23 01:08:43;;;;;;;3.97;1.23;;;16.00;99.90;;;;;;4861023;29;20490;-76
2022/07/23 01:11:09;;;;;;;6.28;1.55;;;16.00;99.90;;;;;;4839727;29;20104;-76
2022/07/23 01:13:34;;;;;;;1.85;1.35;;;16.00;99.90;;;;;;4857384;29;20025;-76
2022/07/23 01:16:00;;;;;;;1.60;1.50;;;16.00;99.90;;;;;;4860503;29;20569;-76
2022/07/23 01:18:26;;;;;;;1.52;1.42;;;16.00;99.90;;;;;;4870504;29;20056;-76
2022/07/23 01:20:51;;;;;;;1.92;1.80;;;16.00;99.90;;;;;;4858220;29;20290;-76
2022/07/23 01:23:17;;;;;;;3.75;1.98;;;16.00;99.90;;;;;;4833120;29;20573;-76
2022/07/23 01:25:52;;;;;;;3.20;1.95;;;15.90;99.90;;;;;;4837737;29;20038;-77
2022/07/23 01:28:17;;;;;;;3.58;1.67;;;15.90;99.90;;;;;;4843549;29;20120;-77
2022/07/23 01:30:44;;;;;;;4.55;1.88;;;15.80;99.90;;;;;;4860715;29;20053;-76
2022/07/23 01:33:09;;;;;;;5.45;2.35;;;15.80;99.90;;;;;;4840457;29;20033;-76
2022/07/23 01:35:35;;;;;;;2.90;2.15;;;15.80;99.90;;;;;;4841495;29;20383;-76
2022/07/23 01:38:00;;;;;;;4.22;1.80;;;15.80;99.90;;;;;;4840743;29;20050;-77
2022/07/23 01:40:26;;;;;;;2.90;2.20;;;15.80;99.90;;;;;;4855567;29;20057;-76
2022/07/23 01:42:51;;;;;;;3.20;1.70;;;15.80;99.90;;;;;;4852576;29;20050;-76
2022/07/23 01:45:17;;;;;;;4.28;2.33;;;15.80;99.90;;;;;;4857779;29;20059;-76
2022/07/23 01:47:43;;;;;;;2.83;1.58;;;15.80;99.90;;;;;;4869054;29;20507;-76
2022/07/23 01:50:09;;;;;;;2.08;1.98;;;15.80;99.90;;;;;;4877893;29;20032;-76
2022/07/23 01:52:34;;;;;;;2.45;1.92;;;15.80;99.90;;;;;;4859483;29;20101;-76
2022/07/23 01:55:00;;;;;;;1.85;1.75;;;15.70;99.90;;;;;;4843239;29;20030;-77
2022/07/23 01:57:25;;;;;;;1.98;1.77;;;15.80;99.90;;;;;;4858670;29;20113;-76
2022/07/23 01:59:51;;;;;;;4.80;2.40;;;15.80;99.90;;;;;;4854057;29;20053;-76
2022/07/23 02:02:17;;;;;;;2.13;1.92;;;15.70;99.90;;;;;;4857044;29;20092;-76
2022/07/23 02:04:42;;;;;;;3.88;2.17;;;15.70;99.90;;;;;;4835278;29;20136;-77
2022/07/23 02:07:08;;;;;;;5.78;2.33;;;15.70;99.90;;;;;;4849216;29;20037;-77
2022/07/23 02:09:34;;;;;;;1.80;1.70;;;15.70;99.90;;;;;;4861900;29;20105;-77
2022/07/23 02:12:00;;;;;;;3.28;2.35;;;15.70;99.90;;;;;;4860816;29;20085;-77
2022/07/23 02:14:26;;;;;;;2.75;2.17;;;15.70;99.90;;;;;;4862528;29;20518;-77
2022/07/23 02:16:53;;;;;;;2.58;1.58;;;15.60;99.90;;;;;;4845159;29;20108;-77
2022/07/23 02:19:18;;;;;;;5.40;1.42;;;15.50;99.90;;;;;;4844900;29;20406;-76
2022/07/23 02:21:44;;;;;;;1.98;1.83;;;15.40;99.90;;;;;;4847371;29;20029;-77
2022/07/23 02:24:09;;;;;;;1.80;1.65;;;15.40;99.90;;;;;;4860086;29;20116;-76
2022/07/23 02:26:35;;;;;;;1.65;1.55;;;15.30;99.90;;;;;;4861723;29;20044;-77
2022/07/23 02:29:04;;;;;;;1.67;1.58;;;15.30;99.90;;;;;;4860984;29;20036;-76
2022/07/23 02:31:30;;;;;;;3.40;1.98;;;15.20;99.90;;;;;;4873492;29;20026;-76
2022/07/23 02:33:55;;;;;;;3.17;2.22;;;15.20;99.90;;;;;;4840655;29;20411;-76
2022/07/23 02:36:21;;;;;;;3.28;2.08;;;15.20;99.90;;;;;;4859336;29;20037;-76
2022/07/23 02:38:47;;;;;;;5.22;1.95;;;15.10;99.90;;;;;;4843608;29;20130;-77
2022/07/23 02:41:12;;;;;;;3.58;2.08;;;15.10;99.90;;;;;;4837070;29;20545;-76
2022/07/23 02:43:38;;;;;;;2.38;2.17;;;15.10;99.90;;;;;;4843833;29;20114;-76
2022/07/23 02:46:04;;;;;;;6.28;2.15;;;15.00;99.90;;;;;;4842457;29;20050;-76
2022/07/23 02:48:30;;;;;;;2.15;1.80;;;15.10;99.90;;;;;;4842032;29;20026;-76
2022/07/23 02:50:56;;;;;;;2.58;1.92;;;15.00;99.90;;;;;;4846918;29;20560;-77
2022/07/23 02:53:25;;;;;;;6.18;2.22;;;15.00;99.90;;;;;;4850404;29;20308;-76
2022/07/23 02:55:51;;;;;;;2.00;1.90;;;15.00;99.90;;;;;;4853740;29;20064;-77
2022/07/23 02:58:16;;;;;;;2.03;1.77;;;15.00;99.90;;;;;;4860694;29;20069;-77
2022/07/23 03:00:42;;;;;;;5.32;1.92;;;15.00;99.90;;;;;;4848516;29;20025;-77
2022/07/23 03:03:08;;;;;;;4.70;2.30;;;14.90;99.90;;;;;;4842165;29;20518;-77
2022/07/23 03:05:34;;;;;;;4.40;2.22;;;14.90;99.90;;;;;;4843346;29;20030;-76
2022/07/23 03:07:59;;;;;;;3.15;2.20;;;14.90;99.90;;;;;;4839961;29;20508;-76
2022/07/23 03:10:25;;;;;;;6.60;2.10;;;14.90;99.90;;;;;;4838260;29;20022;-76
2022/07/23 03:12:50;;;;;;;2.97;2.17;;;14.90;99.90;;;;;;4837099;29;20107;-76
2022/07/23 03:15:16;;;;;;;2.38;2.17;;;14.90;99.90;;;;;;4841039;29;20121;-76
2022/07/23 03:17:42;;;;;;;4.07;2.08;;;15.00;99.90;;;;;;4858307;29;20086;-77
2022/07/23 03:20:08;;;;;;;3.30;2.28;;;15.00;99.90;;;;;;4843859;29;20028;-77
2022/07/23 03:22:34;;;;;;;2.08;1.88;;;14.90;99.90;;;;;;4839369;29;20038;-77
2022/07/23 03:25:00;;;;;;;5.25;2.35;;;15.00;99.90;;;;;;4843207;29;20026;-77
2022/07/23 03:27:27;;;;;;;2.15;1.70;;;15.00;99.90;;;;;;4859354;29;20077;-76
2022/07/23 03:29:55;;;;;;;2.50;2.30;;;14.90;99.90;;;;;;4835060;29;20022;-77
2022/07/23 03:32:21;;;;;;;2.45;2.15;;;14.90;99.90;;;;;;4836446;29;20129;-77
2022/07/23 03:34:47;;;;;;;2.65;2.40;;;14.90;99.90;;;;;;4842875;29;20034;-76
2022/07/23 03:37:13;;;;;;;5.68;2.50;;;14.90;99.90;;;;;;4844916;29;20173;-77
2022/07/23 03:39:38;;;;;;;3.47;2.00;;;14.90;99.90;;;;;;4851161;29;20038;-76
2022/07/23 03:42:04;;;;;;;6.93;1.95;;;14.90;99.90;;;;;;4852149;29;20112;-76
2022/07/23 03:44:30;;;;;;;2.30;2.08;;;14.90;99.90;;;;;;4860915;29;20075;-76
2022/07/23 03:46:55;;;;;;;2.40;1.85;;;14.90;99.90;;;;;;4860871;29;20037;-76
2022/07/23 03:49:21;;;;;;;5.25;2.13;;;14.90;99.90;;;;;;4863008;29;20029;-76
2022/07/23 03:51:46;;;;;;;3.58;1.98;;;14.90;99.90;;;;;;4859952;29;20097;-77
2022/07/23 03:54:12;;;;;;;2.55;2.25;;;14.90;99.90;;;;;;4855503;29;20509;-77
2022/07/23 03:56:38;;;;;;;4.30;2.03;;;15.00;99.90;;;;;;4873741;29;20029;-76
2022/07/23 03:59:03;;;;;;;3.78;2.30;;;15.00;99.90;;;;;;4871040;29;20034;-76
2022/07/23 04:01:29;;;;;;;5.00;2.45;;;15.00;99.90;;;;;;4847083;29;20494;-76
2022/07/23 04:03:54;;;;;;;4.53;1.90;;;15.00;99.90;;;;;;4844659;29;20260;-76
2022/07/23 04:06:20;;;;;;;6.45;2.13;;;15.00;99.90;;;;;;4858928;29;20037;-76
2022/07/23 04:08:46;;;;;;;2.10;1.88;;;15.00;99.90;;;;;;4866805;29;20021;-76
2022/07/23 04:11:11;;;;;;;4.25;1.85;;;15.00;99.90;;;;;;4855608;29;20123;-76
2022/07/23 04:13:37;;;;;;;2.95;2.03;;;15.00;99.90;;;;;;4850112;29;20025;-76
2022/07/23 04:16:03;;;;;;;2.42;2.22;;;15.00;99.90;;;;;;4851715;29;20041;-76
2022/07/23 04:18:29;;;;;;;4.72;2.60;;;15.00;99.90;;;;;;4879165;29;20029;-76
2022/07/23 04:20:55;;;;;;;2.33;1.83;;;14.90;99.90;;;;;;4845752;29;20105;-76
2022/07/23 04:23:20;;;;;;;3.75;2.90;;;14.90;99.90;;;;;;4856745;29;20086;-76
2022/07/23 04:25:46;;;;;;;3.30;1.83;;;14.90;99.90;;;;;;4857935;29;20061;-76
2022/07/23 04:28:11;;;;;;;1.73;1.63;;;14.90;99.90;;;;;;4867592;29;20479;-76
2022/07/23 04:30:37;;;;;;;2.53;1.60;;;14.90;99.90;;;;;;4857389;29;20025;-76
2022/07/23 04:33:06;;;;;;;1.92;1.83;;;14.90;99.90;;;;;;4839809;29;20018;-76
2022/07/23 04:35:32;;;;;;;1.92;1.52;;;14.90;99.90;;;;;;4841858;29;20045;-76
2022/07/23 04:37:58;;;;;;;3.38;1.70;;;15.00;99.90;;;;;;4863786;29;20486;-76
2022/07/23 04:40:23;;;;;;;6.40;3.22;;;15.00;99.90;;;;;;4857624;29;20094;-77
2022/07/23 04:42:49;;;;;;;5.78;1.95;;;15.00;99.90;;;;;;4856901;29;20402;-76
2022/07/23 04:45:14;;;;;;;6.28;2.10;;;15.00;99.90;;;;;;4843402;29;20090;-76
2022/07/23 04:47:40;;;;;;;5.68;2.13;;;15.00;99.90;;;;;;4844448;29;20139;-77
2022/07/23 04:50:06;;;;;;;2.35;1.65;;;15.10;99.90;;;;;;4865718;29;20022;-76
2022/07/23 04:52:31;;;;;;;3.00;2.00;;;15.10;99.90;;;;;;4858244;29;20565;-77
2022/07/23 04:54:57;;;;;;;1.65;1.55;;;15.10;99.90;;;;;;4868791;29;20074;-77
2022/07/23 04:57:22;;;;;;;4.30;1.88;;;15.20;99.90;;;;;;4849332;29;20502;-76
2022/07/23 04:59:48;;;;;;;2.05;1.48;;;15.20;99.90;;;;;;4849542;29;20445;-76
2022/07/23 05:02:14;;;;;;;3.03;1.88;;;15.30;99.90;;;;;;4857663;29;20096;-76
2022/07/23 05:04:39;;;;;;;1.88;1.77;;;15.30;99.90;;;;;;4837849;29;20505;-77
2022/07/23 05:07:05;;;;;;;2.10;1.85;;;15.30;99.90;;;;;;4855730;29;20041;-76
2022/07/23 05:09:30;;;;;;;2.30;2.03;;;15.40;99.90;;;;;;4844529;29;20038;-76
2022/07/23 05:11:56;;;;;;;4.53;2.00;;;15.40;99.90;;;;;;4842781;29;20029;-77
2022/07/23 05:14:21;;;;;;;2.55;1.55;;;15.50;99.90;;;;;;4858068;29;20474;-75
2022/07/23 05:16:47;;;;;;;4.28;2.13;;;15.50;99.90;;;;;;4858974;29;20021;-76
2022/07/23 05:19:13;;;;;;;3.65;1.92;;;15.60;99.90;;;;;;4858540;29;20066;-76
2022/07/23 05:21:39;;;;;;;1.50;1.30;;;15.70;99.90;;;;;;4861345;29;20038;-77
2022/07/23 05:24:05;;;;;;;3.35;1.48;;;15.70;99.90;;;;;;4839047;29;20393;-77
2022/07/23 05:26:30;;;;;;;1.52;1.42;;;15.80;99.90;;;;;;4859104;29;20439;-77
2022/07/23 05:28:56;;;;;;;2.65;1.42;;;15.90;99.90;;;;;;4857205;29;20021;-76
2022/07/23 05:31:22;;;;;;;1.33;1.23;;;16.00;99.90;;;;;;4856327;29;20038;-76
2022/07/23 05:33:47;;;;;;;4.68;1.65;;;16.10;99.90;;;;;;4856464;29;20029;-76
2022/07/23 05:36:13;;;;;;;4.65;1.48;;;16.10;99.90;;;;;;4863532;29;20029;-76
2022/07/23 05:38:38;;;;;;;3.33;1.98;;;16.20;99.90;;;;;;4861339;29;20025;-76
2022/07/23 05:41:04;;;;;;;2.17;1.60;;;16.20;99.90;;;;;;4852973;29;20042;-76
2022/07/23 05:43:29;;;;;;;1.60;1.38;;;16.30;99.90;;;;;;4859184;29;20033;-76
2022/07/23 05:45:55;;;;;;;6.13;1.15;;;16.40;99.90;;;;;;4869160;29;20056;-76
2022/07/23 05:48:21;;;;;;;1.30;1.20;;;16.40;99.90;;;;;;4881513;29;20032;-76
2022/07/23 05:50:47;;;;;;;1.30;1.20;;;16.60;99.90;;;;;;4864855;29;20037;-76
2022/07/23 05:53:13;;;;;;;1.23;1.13;;;16.70;99.90;;;;;;4864078;29;20038;-77
2022/07/23 05:55:39;;;;;;;2.05;1.10;;;16.80;99.90;;;;;;4848114;29;20029;-76
2022/07/23 05:58:04;;;;;;;5.78;1.45;;;16.90;99.90;;;;;;4862420;29;20094;-76
2022/07/23 06:00:30;;;;;;;2.67;1.10;;;16.90;99.90;;;;;;4848327;29;20044;-76
2022/07/23 06:02:56;;;;;;;3.08;1.40;;;17.00;99.90;;;;;;4873701;29;20061;-76
2022/07/23 06:05:22;;;;;;;1.52;1.42;;;17.10;99.90;;;;;;4876189;29;20442;-76
2022/07/23 06:07:48;;;;;;;2.90;1.00;;;17.20;99.90;;;;;;4846359;29;20030;-76
2022/07/23 06:10:13;;;;;;;2.67;1.10;;;17.30;99.90;;;;;;4843462;29;20014;-76
2022/07/23 06:12:39;;;;;;;5.20;1.42;;;17.40;99.90;;;;;;4855116;29;20034;-76
2022/07/23 06:15:05;;;;;;;3.45;1.08;;;17.50;99.90;;;;;;4855816;29;20491;-76
2022/07/23 06:17:31;;;;;;;2.97;0.80;;;17.60;99.90;;;;;;4847727;29;20033;-76
2022/07/23 06:19:56;;;;;;;1.67;1.10;;;17.80;99.90;;;;;;4857402;29;20030;-76
2022/07/23 06:22:22;;;;;;;2.50;1.10;;;17.90;99.90;;;;;;4859410;29;20037;-76
2022/07/23 06:24:49;;;;;;;1.58;0.93;;;18.00;99.90;;;;;;4859453;29;20041;-77
2022/07/23 06:27:15;;;;;;;2.78;1.23;;;18.20;99.90;;;;;;4839533;29;20033;-77
2022/07/23 06:29:40;;;;;;;2.35;1.20;;;19.30;99.90;;;;;;4843808;29;20037;-77
2022/07/23 06:32:07;;;;;;;4.90;1.13;;;21.40;99.90;;;;;;4860589;29;20089;-77
2022/07/23 06:34:33;;;;;;;1.02;1.02;;;23.10;99.90;;;;;;4859740;29;20528;-77
2022/07/23 06:36:58;;;;;;;1.33;0.93;;;24.50;99.90;;;;;;4860324;29;20149;-77
2022/07/23 06:39:24;;;;;;;1.42;1.13;;;25.40;99.90;;;;;;4861402;29;20030;-77
2022/07/23 06:41:50;;;;;;;0.80;0.63;;;26.10;99.90;;;;;;4859793;29;20057;-76
2022/07/23 06:44:16;;;;;;;3.17;0.98;;;26.70;98.90;;;;;;4846643;29;20402;-76
2022/07/23 06:46:41;;;;;;;0.68;0.68;;;26.70;97.90;;;;;;4840337;29;20049;-77
2022/07/23 06:49:07;;;;;;;3.20;0.95;;;26.10;98.00;;;;;;4859398;29;20078;-77
2022/07/23 06:51:32;;;;;;;0.52;0.50;;;25.10;98.40;;;;;;4862144;29;20060;-76
2022/07/23 06:53:58;;;;;;;1.15;0.70;;;23.80;99.80;;;;;;4858867;29;20064;-77
2022/07/23 06:56:24;;;;;;;1.00;0.77;;;22.80;99.90;;;;;;4857417;29;20033;-77
2022/07/23 06:58:50;;;;;;;2.15;0.80;;;22.00;99.90;;;;;;4843714;29;20037;-76
2022/07/23 07:01:15;;;;;;;1.38;0.85;;;21.30;99.90;;;;;;4855124;29;20068;-76
2022/07/23 07:03:41;;;;;;;5.28;0.98;;;20.90;99.90;;;;;;4866290;29;20409;-76
2022/07/23 07:06:06;;;;;;;3.30;0.93;;;20.90;99.90;;;;;;4834926;29;20033;-76
2022/07/23 07:08:32;;;;;;;0.73;0.70;;;21.90;99.90;;;;;;4854337;29;20030;-77
2022/07/23 07:10:58;;;;;;;5.70;1.10;;;22.90;99.90;;;;;;4857521;29;20053;-77
2022/07/23 07:13:23;;;;;;;3.45;1.00;;;23.80;99.90;;;;;;4838283;29;20478;-78
2022/07/23 07:15:49;;;;;;;2.80;1.00;;;24.10;99.90;;;;;;4846767;29;20577;-78
2022/07/23 07:18:14;;;;;;;2.15;0.70;;;24.80;99.50;;;;;;4843018;29;20506;-78
2022/07/23 07:20:40;;;;;;;5.05;0.85;;;25.20;99.30;;;;;;4841712;29;20037;-77
2022/07/23 07:23:06;;;;;;;0.52;0.52;;;25.30;98.90;;;;;;4854271;29;20022;-78
2022/07/23 07:25:31;;;;;;;1.17;0.90;;;25.00;98.60;;;;;;4857835;29;20046;-77
2022/07/23 07:27:57;;;;;;;0.77;0.70;;;24.50;99.30;;;;;;4840400;29;20041;-77
2022/07/23 07:30:22;;;;;;;1.20;0.70;;;24.40;99.20;;;;;;4845251;29;20124;-79
2022/07/23 07:32:48;;;;;;;2.20;0.57;;;24.20;99.00;;;;;;4864430;29;20044;-79
2022/07/23 07:35:14;;;;;;;1.40;0.82;;;23.70;99.60;;;;;;4861294;23;20097;-36
2022/07/23 07:37:39;;;;;;;3.88;1.20;;;23.50;99.90;;;;;;4831753;29;20450;-36
2022/07/23 07:40:05;;;;;;;2.92;1.02;;;23.10;99.90;;;;;;4838005;29;20034;-33
2022/07/23 07:42:32;;;;;;;0.60;0.55;;;22.70;99.90;;;;;;4830795;29;20052;-31
2022/07/23 07:44:58;;;;;;;1.88;0.95;;;22.30;99.90;;;;;;4832031;29;20037;-37
2022/07/23 07:47:23;;;;;;;1.45;0.60;;;21.90;99.90;;;;;;4835557;29;20050;-32
2022/07/23 07:49:49;;;;;;;1.30;1.20;;;21.60;99.90;;;;;;4836151;29;20100;-38
2022/07/23 07:52:14;;;;;;;0.60;0.60;;;21.40;99.90;;;;;;4831478;29;20226;-36
2022/07/23 07:54:40;;;;;;;1.35;0.50;;;21.20;99.90;;;;;;4835686;29;20105;-37
2022/07/23 07:57:06;;;;;;;1.63;0.70;;;21.10;99.90;;;;;;4838630;29;20489;-37
2022/07/23 07:59:31;;;;;;;1.48;0.40;;;21.30;99.90;;;;;;4840288;29;20094;-35
2022/07/23 08:01:57;;;;;;;5.38;0.73;;;21.60;99.90;;;;;;4835041;29;20033;-37
2022/07/23 08:04:23;;;;;;;2.03;1.30;;;21.60;99.90;;;;;;4837506;29;20478;-36
2022/07/23 08:06:48;;;;;;;1.08;0.60;;;21.60;99.90;;;;;;4832843;29;20588;-37
2022/07/23 08:09:14;;;;;;;1.10;0.80;;;21.90;99.90;;;;;;4839551;29;20198;-37
2022/07/23 08:11:39;;;;;;;0.75;0.40;;;22.30;99.90;;;;;;4842313;29;20030;-36
2022/07/23 08:14:05;;;;;;;0.90;0.50;;;22.40;99.90;;;;;;4844857;29;20763;-37
2022/07/23 08:16:31;;;;;;;3.50;0.80;;;22.30;99.90;;;;;;4840653;29;20037;-33
2022/07/23 08:18:56;;;;;;;4.22;0.40;;;22.20;99.60;;;;;;4842828;29;20038;-41
2022/07/23 08:21:22;;;;;;;0.60;0.50;;;22.30;99.90;;;;;;4827455;29;20077;-32
2022/07/23 08:23:48;;;;;;;3.13;0.70;;;22.60;99.40;;;;;;4839578;29;20108;-33
2022/07/23 08:26:13;;;;;;;1.73;0.88;;;22.60;99.70;;;;;;4838138;29;20516;-46
2022/07/23 08:28:39;;;;;;;1.75;0.85;;;22.70;99.80;;;;;;4835731;29;20025;-36
2022/07/23 08:31:07;;;;;;;1.80;0.80;;;22.50;99.90;;;;;;4838623;29;20519;-33
2022/07/23 08:33:33;;;;;;;2.75;0.65;;;22.50;99.90;;;;;;4836592;29;20387;-37
2022/07/23 08:35:59;;;;;;;3.15;0.90;;;22.50;99.90;;;;;;4840474;29;20101;-39
2022/07/23 08:38:28;;;;;;;1.50;0.50;;;22.40;99.90;;;;;;4838963;29;20068;-37
2022/07/23 08:40:55;;;;;;;0.47;0.47;;;22.30;99.90;;;;;;4842704;29;20037;-31
2022/07/23 08:43:23;;;;;;;1.30;0.93;;;22.60;99.90;;;;;;4836504;29;20144;-39
2022/07/23 08:45:51;;;;;;;4.30;0.77;;;23.20;99.50;;;;;;4840947;29;20350;-36
2022/07/23 08:48:20;;;;;;;2.50;0.57;;;23.20;99.70;;;;;;4839272;29;20485;-43
2022/07/23 08:50:48;;;;;;;1.38;0.70;;;23.90;98.80;;;;;;4843758;29;20528;-36
2022/07/23 08:53:15;;;;;;;3.83;0.45;;;24.10;98.00;;;;;;4842731;29;20138;-37
2022/07/23 08:55:45;;;;;;;2.20;0.57;;;24.20;98.20;;;;;;4827866;29;20033;-33
2022/07/23 08:58:11;;;;;;;1.48;0.68;;;24.20;98.70;;;;;;4810521;29;20481;-39
2022/07/23 09:00:37;;;;;;;2.10;0.47;;;24.60;97.90;;;;;;4843834;29;20033;-36
2022/07/23 09:03:02;;;;;;;3.55;0.52;;;24.70;97.30;;;;;;4840468;29;20384;-33
2022/07/23 09:05:28;;;;;;;0.75;0.75;;;25.20;96.70;;;;;;4841166;29;20056;-34
2022/07/23 09:08:06;;;;;;;1.25;0.68;;;25.40;96.90;;;;;;4840966;29;20026;-38
2022/07/23 09:10:50;;;;;;;1.48;0.70;;;25.80;96.80;;;;;;4839739;29;20090;-38
2022/07/23 09:13:46;;;;;;;7.68;0.80;;;26.10;96.00;;;;;;4840403;29;20044;-34
2022/07/23 09:16:18;;;;;;;1.13;0.55;;;26.10;96.00;;;;;;4844690;29;20133;-34
2022/07/23 09:18:51;;;;;;;1.40;0.75;;;26.20;96.10;;;;;;4842556;29;20478;-35
2022/07/23 09:21:31;;;;;;;3.70;0.93;;;25.70;95.90;;;;;;4845232;29;20133;-35
2022/07/23 09:23:58;;;;;;;1.10;0.50;;;25.50;96.20;;;;;;4839040;29;20040;-31
2022/07/23 09:26:41;;;;;;;1.90;0.50;;;25.30;96.20;;;;;;4843416;29;20029;-37
2022/07/23 09:29:23;;;;;;;1.95;0.75;;;25.40;96.60;;;;;;4836697;29;20038;-38
2022/07/23 09:31:50;;;;;;;3.20;0.57;;;25.50;96.00;;;;;;4841896;29;20480;-37
2022/07/23 09:34:23;;;;;;;1.92;0.65;;;25.10;96.30;;;;;;4829778;29;20037;-40
2022/07/23 09:36:52;;;;;;;0.80;0.50;;;24.70;96.60;;;;;;4838688;29;20114;-39
2022/07/23 09:39:28;;;;;;;2.50;0.50;;;24.90;96.50;;;;;;4836807;29;20045;-38
2022/07/23 09:41:55;;;;;;;1.10;0.45;;;25.20;96.10;;;;;;4842340;29;20030;-37
2022/07/23 09:44:21;;;;;;;1.53;0.30;;;25.60;95.60;;;;;;4843708;29;20037;-35
2022/07/23 09:46:48;;;;;;;3.42;0.60;;;25.90;95.20;;;;;;4840468;29;20295;-35
2022/07/23 09:49:20;;;;;;;0.57;0.50;;;25.70;94.80;;;;;;4844355;29;20653;-39
2022/07/23 09:51:57;;;;;;;0.70;0.50;;;25.80;94.80;;;;;;4841800;29;20060;-38
2022/07/23 09:54:33;;;;;;;1.30;0.63;;;25.80;95.20;;;;;;4847423;29;20562;-34
2022/07/23 09:57:20;;;;;;;1.65;0.63;;;25.70;95.40;;;;;;4842271;29;20533;-34
2022/07/23 09:59:47;;;;;;;1.13;0.60;;;25.80;95.30;;;;;;4842606;29;20026;-38
2022/07/23 10:02:14;;;;;;;0.40;0.40;;;26.00;95.30;;;;;;4840879;29;20289;-37
2022/07/23 10:04:41;;;;;;;;;;;25.90;95.10;;;;;;4841655;29;20108;-33
2022/07/23 10:07:10;;;;;;;;;;;25.70;95.10;;;;;;4823965;29;19972;-35
2022/07/23 10:09:39;;;;;;;5.93;0.90;;;25.30;95.40;;;;;;4845574;29;19959;-36
2022/07/23 10:14:38;;;;;;;1.50;1.23;;;25.10;95.00;;;;;;4846845;29;20467;-37
2022/07/23 10:17:04;;;;;;;0.98;0.60;;;25.00;95.90;;;;;;4841216;29;20041;-37
2022/07/23 10:19:31;;;;;;;1.20;0.60;;;25.30;95.40;;;;;;4840462;29;20033;-39
2022/07/23 10:22:16;;;;;;;;;;;25.00;95.00;;;;;;4849304;29;20513;-34
2022/07/23 10:25:00;;;;;;;1.33;0.73;;;25.30;95.40;;;;;;4840337;29;20276;-37
2022/07/23 10:27:48;;;;;;;2.28;0.63;;;26.10;95.00;;;;;;4834165;29;20034;-37
2022/07/23 10:30:36;;;;;;;0.82;0.70;;;26.50;94.50;;;;;;4838083;29;20042;-37
2022/07/23 10:33:31;;;;;;;1.05;0.60;;;26.40;94.00;;;;;;4839251;29;20024;-36
2022/07/23 10:36:18;;;;;;;1.67;0.70;;;26.10;94.30;;;;;;4816893;29;20058;-35
2022/07/23 10:38:59;;;;;;;2.15;0.80;;;25.80;94.40;;;;;;4838046;29;20101;-34
2022/07/23 10:41:36;;;;;;;3.50;0.77;;;25.70;94.80;;;;;;4838382;29;20060;-38
2022/07/23 10:44:25;;;;;;;1.50;0.50;;;25.80;94.20;;;;;;4837327;29;20041;-33
2022/07/23 10:47:59;;;;;;;0.80;0.65;;;25.70;94.80;;;;;;4835532;29;20068;-38
2022/07/23 10:50:14;;;;;;;1.35;0.60;;;25.90;94.50;;;;;;4830033;29;20034;-37
2022/07/23 10:52:39;;;;;;;5.05;0.80;;;25.60;94.90;;;;;;4839069;29;21232;-38
2022/07/23 10:55:08;;;;;;;1.20;0.80;;;25.30;95.50;;;;;;4834978;29;20032;-33
2022/07/23 10:57:49;;;;;;;4.18;0.88;;;24.90;95.50;;;;;;4839464;29;20486;-39
2022/07/23 11:00:29;;;;;;;1.60;0.70;;;24.70;95.70;;;;;;4839549;29;20593;-34
2022/07/23 11:02:57;;;;;;;1.15;0.80;;;24.70;96.10;;;;;;4822637;29;20499;-37
2022/07/23 11:05:26;;;;;;;0.82;0.77;;;24.70;96.20;;;;;;4839896;29;20513;-39
2022/07/23 11:08:04;;;;;;;4.00;0.98;;;24.40;96.30;;;;;;4839872;29;20407;-35
2022/07/23 11:10:37;;;;;;;1.73;0.80;;;24.60;96.30;;;;;;4838958;29;20367;-37
2022/07/23 11:13:21;;;;;;;0.80;0.77;;;24.60;95.80;;;;;;4841648;29;20394;-36
2022/07/23 11:16:05;;;;;;;4.47;1.00;;;24.90;96.10;;;;;;4835237;29;20034;-37
2022/07/23 11:18:40;;;;;;;2.35;0.80;;;25.00;96.20;;;;;;4833692;29;20044;-32
2022/07/23 11:21:21;;;;;;;1.05;0.60;;;25.00;96.60;;;;;;4825552;29;20037;-50
2022/07/23 11:24:08;;;;;;;4.40;1.40;;;25.20;96.10;;;;;;4836154;29;20040;-37
2022/07/23 11:26:45;;;;;;;4.10;1.02;;;25.20;95.20;;;;;;4835362;29;20072;-36
2022/07/23 11:29:31;;;;;;;1.20;1.05;;;25.00;95.90;;;;;;4835514;29;20034;-35
2022/07/23 11:32:23;;;;;;;0.80;0.80;;;25.00;95.90;;;;;;4828888;29;20042;-33
2022/07/23 11:34:50;;;;;;;1.02;0.95;;;24.80;95.80;;;;;;4824620;29;20050;-37
2022/07/23 11:37:33;;;;;;;;;;;24.90;95.40;;;;;;4839294;29;20038;-37
2022/07/23 11:40:00;;;;;;;1.67;0.70;;;25.10;95.90;;;;;;4837247;29;19959;-37
2022/07/23 11:42:25;;;;;;;1.80;1.15;;;25.30;95.80;;;;;;4836385;29;20706;-34
2022/07/23 11:44:51;;;;;;;1.90;0.90;;;25.40;96.00;;;;;;4835793;29;20463;-32
2022/07/23 11:47:22;;;;;;;2.35;1.30;;;25.40;96.40;;;;;;4839217;29;20560;-34
2022/07/23 11:50:00;;;;;;;1.33;1.00;;;25.40;95.60;;;;;;4825365;29;20041;-33
2022/07/23 11:52:27;;;;;;;2.47;0.75;;;25.40;95.70;;;;;;4844630;29;20474;-37
2022/07/23 11:55:02;;;;;;;1.20;1.02;;;25.60;96.20;;;;;;4835186;29;20029;-38
2022/07/23 11:57:34;;;;;;;1.42;1.05;;;25.60;95.90;;;;;;4837768;29;20530;-38
2022/07/23 12:00:11;;;;;;;2.42;1.48;;;25.70;95.60;;;;;;4835583;29;20033;-33
2022/07/23 12:02:41;;;;;;;1.00;1.00;;;25.60;95.60;;;;;;4840256;29;20052;-39
2022/07/23 12:05:09;;;;;;;3.03;1.50;;;25.70;95.30;;;;;;4819241;29;20060;-37
2022/07/23 12:07:40;;;;;;;5.47;1.45;;;25.60;95.60;;;;;;4838482;29;20112;-33
2022/07/23 12:10:14;;;;;;;1.30;1.20;;;25.10;95.50;;;;;;4839227;29;20056;-57
2022/07/23 12:12:43;;;;;;;6.80;1.92;;;24.90;95.80;;;;;;4835806;29;20374;-34
2022/07/23 12:15:10;;;;;;;1.73;1.35;;;24.80;96.20;;;;;;4837310;29;20770;-33
2022/07/23 12:17:38;;;;;;;1.73;1.27;;;24.80;95.60;;;;;;4835385;29;20047;-37
2022/07/23 12:20:07;;;;;;;3.30;1.70;;;25.10;95.60;;;;;;4838124;29;20025;-33
2022/07/23 12:22:38;;;;;;;2.13;0.90;;;25.40;95.60;;;;;;4835041;29;20442;-37
2022/07/23 12:25:07;;;;;;;2.53;1.52;;;25.70;95.80;;;;;;4830292;29;20135;-35
2022/07/23 12:27:33;;;;;;;2.00;1.20;;;26.00;95.20;;;;;;4827197;29;20463;-36
2022/07/23 12:30:15;;;;;;;2.15;1.30;;;26.10;95.00;;;;;;4830986;29;20129;-34
2022/07/23 12:32:44;;;;;;;1.30;0.95;;;26.40;95.40;;;;;;4831401;29;20026;-34
2022/07/23 12:35:10;;;;;;;5.35;1.65;;;26.60;95.40;;;;;;4832774;29;20144;-40
2022/07/23 12:37:39;;;;;;;2.40;1.23;;;26.90;94.90;;;;;;4831382;29;20038;-41
2022/07/23 12:40:27;;;;;;;4.32;1.13;;;26.80;94.30;;;;;;4831428;29;20036;-34
2022/07/23 12:43:02;;;;;;;3.70;1.85;;;26.70;94.90;;;;;;4831338;29;20026;-39
2022/07/23 12:45:51;;;;;;;1.88;1.63;;;26.40;94.80;;;;;;4833025;29;20097;-41
2022/07/23 12:48:38;;;;;;;2.03;1.33;;;26.00;95.60;;;;;;4831263;29;20486;-42
2022/07/23 12:51:05;;;;;;;;;;;26.00;95.80;;;;;;4828022;29;20030;-35
2022/07/23 12:53:48;;;;;;;1.73;1.60;;;26.10;95.10;;;;;;4828339;29;19924;-37
2022/07/23 12:56:19;;;;;;;2.60;1.50;;;25.90;95.20;;;;;;4835885;29;20579;-36